sensor_id;sensor_type;location;lat;lon;timestamp;pressure;altitude;pressure_sealevel;temperature;humidity
61128;BME280;47013;42.664;23.242;2023-03-21T00:01:43;93883.25;;;11.04;56.17
61128;BME280;47013;42.664;23.242;2023-03-21T00:04:08;93880.59;;;11.00;55.99
61128;BME280;47013;42.664;23.242;2023-03-21T00:06:34;93883.72;;;10.99;56.21
61128;BME280;47013;42.664;23.242;2023-03-21T00:09:00;93888.38;;;10.98;54.93
61128;BME280;47013;42.664;23.242;2023-03-21T00:11:26;93878.34;;;10.95;55.40
61128;BME280;47013;42.664;23.242;2023-03-21T00:13:51;93879.47;;;10.98;55.60
61128;BME280;47013;42.664;23.242;2023-03-21T00:16:17;93879.53;;;10.90;56.53
61128;BME280;47013;42.664;23.242;2023-03-21T00:18:45;93871.81;;;10.89;56.15
61128;BME280;47013;42.664;23.242;2023-03-21T00:21:13;93872.59;;;10.89;55.51
61128;BME280;47013;42.664;23.242;2023-03-21T00:23:42;93877.25;;;10.89;55.58
61128;BME280;47013;42.664;23.242;2023-03-21T00:26:09;93871.16;;;10.81;56.49
61128;BME280;47013;42.664;23.242;2023-03-21T00:28:36;93868.88;;;10.76;55.36
61128;BME280;47013;42.664;23.242;2023-03-21T00:31:02;93874.38;;;10.73;54.77
61128;BME280;47013;42.664;23.242;2023-03-21T00:33:27;93870.19;;;10.68;54.90
61128;BME280;47013;42.664;23.242;2023-03-21T00:35:54;93864.69;;;10.72;54.77
61128;BME280;47013;42.664;23.242;2023-03-21T00:38:20;93868.19;;;10.72;54.28
61128;BME280;47013;42.664;23.242;2023-03-21T00:40:46;93858.09;;;10.73;54.14
61128;BME280;47013;42.664;23.242;2023-03-21T00:43:12;93856.91;;;10.74;53.70
61128;BME280;47013;42.664;23.242;2023-03-21T00:45:42;93854.63;;;10.72;55.36
61128;BME280;47013;42.664;23.242;2023-03-21T00:48:07;93861.16;;;10.75;54.87
61128;BME280;47013;42.664;23.242;2023-03-21T00:50:33;93862.34;;;10.74;55.32
61128;BME280;47013;42.664;23.242;2023-03-21T00:52:59;93859.34;;;10.68;55.82
61128;BME280;47013;42.664;23.242;2023-03-21T00:55:24;93853.56;;;10.62;55.88
61128;BME280;47013;42.664;23.242;2023-03-21T00:57:50;93854.81;;;10.58;56.18
61128;BME280;47013;42.664;23.242;2023-03-21T01:00:16;93856.34;;;10.59;56.53
61128;BME280;47013;42.664;23.242;2023-03-21T01:02:43;93854.44;;;10.56;57.04
61128;BME280;47013;42.664;23.242;2023-03-21T01:05:21;93856.41;;;10.52;56.38
61128;BME280;47013;42.664;23.242;2023-03-21T01:08:07;93850.34;;;10.44;56.74
61128;BME280;47013;42.664;23.242;2023-03-21T01:10:32;93860.44;;;10.40;57.12
61128;BME280;47013;42.664;23.242;2023-03-21T01:12:58;93853.16;;;10.33;56.73
61128;BME280;47013;42.664;23.242;2023-03-21T01:15:23;93849.28;;;10.34;56.32
61128;BME280;47013;42.664;23.242;2023-03-21T01:17:49;93844.69;;;10.28;56.35
61128;BME280;47013;42.664;23.242;2023-03-21T01:20:14;93846.63;;;10.27;56.33
61128;BME280;47013;42.664;23.242;2023-03-21T01:22:40;93850.59;;;10.19;57.12
61128;BME280;47013;42.664;23.242;2023-03-21T01:25:05;93854.94;;;10.10;57.38
61128;BME280;47013;42.664;23.242;2023-03-21T01:27:31;93859.66;;;10.05;58.26
61128;BME280;47013;42.664;23.242;2023-03-21T01:29:56;93858.22;;;9.94;58.67
61128;BME280;47013;42.664;23.242;2023-03-21T01:32:22;93857.59;;;9.79;59.15
61128;BME280;47013;42.664;23.242;2023-03-21T01:34:47;93858.41;;;9.72;59.27
61128;BME280;47013;42.664;23.242;2023-03-21T01:37:12;93854.28;;;9.61;59.75
61128;BME280;47013;42.664;23.242;2023-03-21T01:39:38;93846.50;;;9.63;60.21
61128;BME280;47013;42.664;23.242;2023-03-21T01:42:04;93860.44;;;9.61;60.47
61128;BME280;47013;42.664;23.242;2023-03-21T01:44:30;93848.84;;;9.64;61.36
61128;BME280;47013;42.664;23.242;2023-03-21T01:46:55;93856.94;;;9.68;60.93
61128;BME280;47013;42.664;23.242;2023-03-21T01:49:25;93852.28;;;9.68;61.13
61128;BME280;47013;42.664;23.242;2023-03-21T01:52:02;93855.72;;;9.72;61.17
61128;BME280;47013;42.664;23.242;2023-03-21T01:54:31;93842.22;;;9.69;61.46
61128;BME280;47013;42.664;23.242;2023-03-21T01:57:00;93844.53;;;9.70;61.46
61128;BME280;47013;42.664;23.242;2023-03-21T01:59:44;93854.19;;;9.71;61.66
61128;BME280;47013;42.664;23.242;2023-03-21T02:02:14;93850.75;;;9.67;62.81
61128;BME280;47013;42.664;23.242;2023-03-21T02:04:42;93852.69;;;9.67;62.15
61128;BME280;47013;42.664;23.242;2023-03-21T02:07:25;93861.56;;;9.67;62.09
61128;BME280;47013;42.664;23.242;2023-03-21T02:09:53;93843.84;;;9.59;61.50
61128;BME280;47013;42.664;23.242;2023-03-21T02:12:20;93843.44;;;9.61;61.67
61128;BME280;47013;42.664;23.242;2023-03-21T02:14:48;93851.19;;;9.59;61.02
61128;BME280;47013;42.664;23.242;2023-03-21T02:39:26;93835.94;;;9.38;63.42
61128;BME280;47013;42.664;23.242;2023-03-21T02:42:15;93833.69;;;9.29;63.79
61128;BME280;47013;42.664;23.242;2023-03-21T02:44:48;93828.63;;;9.31;63.20
61128;BME280;47013;42.664;23.242;2023-03-21T02:47:29;93822.84;;;9.29;63.66
61128;BME280;47013;42.664;23.242;2023-03-21T02:50:20;93820.09;;;9.33;62.39
61128;BME280;47013;42.664;23.242;2023-03-21T02:52:49;93821.66;;;9.34;63.01
61128;BME280;47013;42.664;23.242;2023-03-21T02:55:23;93821.66;;;9.34;62.82
61128;BME280;47013;42.664;23.242;2023-03-21T02:57:51;93827.09;;;9.30;62.95
61128;BME280;47013;42.664;23.242;2023-03-21T03:00:22;93829.81;;;9.30;63.05
61128;BME280;47013;42.664;23.242;2023-03-21T03:02:48;93825.19;;;9.27;63.01
61128;BME280;47013;42.664;23.242;2023-03-21T03:05:17;93832.19;;;9.25;62.85
61128;BME280;47013;42.664;23.242;2023-03-21T03:13:34;93830.44;;;8.97;63.60
61128;BME280;47013;42.664;23.242;2023-03-21T03:16:46;93829.66;;;8.96;64.15
61128;BME280;47013;42.664;23.242;2023-03-21T03:19:07;93829.81;;;8.75;62.95
61128;BME280;47013;42.664;23.242;2023-03-21T03:21:46;93832.53;;;8.75;63.50
61128;BME280;47013;42.664;23.242;2023-03-21T03:24:22;93836.41;;;8.74;63.08
61128;BME280;47013;42.664;23.242;2023-03-21T03:26:56;93839.09;;;8.74;63.66
61128;BME280;47013;42.664;23.242;2023-03-21T03:29:24;93839.88;;;8.74;63.71
61128;BME280;47013;42.664;23.242;2023-03-21T03:31:58;93836.03;;;8.68;63.98
61128;BME280;47013;42.664;23.242;2023-03-21T03:34:30;93827.19;;;8.64;64.22
61128;BME280;47013;42.664;23.242;2023-03-21T03:37:00;93841.56;;;8.47;64.94
61128;BME280;47013;42.664;23.242;2023-03-21T03:39:46;93841.94;;;8.45;65.34
61128;BME280;47013;42.664;23.242;2023-03-21T03:42:18;93841.16;;;8.48;65.65
61128;BME280;47013;42.664;23.242;2023-03-21T03:44:45;93840.00;;;8.49;65.00
61128;BME280;47013;42.664;23.242;2023-03-21T03:47:23;93836.13;;;8.50;64.95
61128;BME280;47013;42.664;23.242;2023-03-21T03:50:01;93838.81;;;8.54;65.78
61128;BME280;47013;42.664;23.242;2023-03-21T03:52:33;93833.84;;;8.49;63.58
61128;BME280;47013;42.664;23.242;2023-03-21T03:55:00;93833.81;;;8.52;64.94
61128;BME280;47013;42.664;23.242;2023-03-21T03:57:26;93836.09;;;8.54;64.39
61128;BME280;47013;42.664;23.242;2023-03-21T03:59:53;93840.72;;;8.57;65.14
61128;BME280;47013;42.664;23.242;2023-03-21T04:02:19;93831.44;;;8.58;64.79
61128;BME280;47013;42.664;23.242;2023-03-21T04:04:45;93824.50;;;8.57;65.14
61128;BME280;47013;42.664;23.242;2023-03-21T04:07:11;93826.81;;;8.58;64.21
61128;BME280;47013;42.664;23.242;2023-03-21T04:09:37;93834.16;;;8.58;64.03
61128;BME280;47013;42.664;23.242;2023-03-21T04:12:02;93835.75;;;8.52;63.27
61128;BME280;47013;42.664;23.242;2023-03-21T04:14:28;93826.13;;;8.44;62.91
61128;BME280;47013;42.664;23.242;2023-03-21T04:16:53;93819.97;;;8.33;63.53
61128;BME280;47013;42.664;23.242;2023-03-21T04:19:19;93820.00;;;8.29;62.60
61128;BME280;47013;42.664;23.242;2023-03-21T04:21:45;93826.94;;;8.34;63.07
61128;BME280;47013;42.664;23.242;2023-03-21T04:24:11;93827.72;;;8.34;63.30
61128;BME280;47013;42.664;23.242;2023-03-21T04:26:38;93816.09;;;8.41;63.81
61128;BME280;47013;42.664;23.242;2023-03-21T04:29:04;93817.25;;;8.43;63.58
61128;BME280;47013;42.664;23.242;2023-03-21T04:31:30;93826.88;;;8.44;63.69
61128;BME280;47013;42.664;23.242;2023-03-21T04:33:58;93826.13;;;8.44;64.40
61128;BME280;47013;42.664;23.242;2023-03-21T04:36:24;93821.13;;;8.42;64.70
61128;BME280;47013;42.664;23.242;2023-03-21T04:38:52;93827.28;;;8.43;65.06
61128;BME280;47013;42.664;23.242;2023-03-21T04:41:17;93828.44;;;8.42;65.40
61128;BME280;47013;42.664;23.242;2023-03-21T04:43:43;93830.00;;;8.39;66.00
61128;BME280;47013;42.664;23.242;2023-03-21T04:46:09;93829.75;;;8.09;66.98
61128;BME280;47013;42.664;23.242;2023-03-21T04:48:34;93833.16;;;8.16;66.92
61128;BME280;47013;42.664;23.242;2023-03-21T04:51:00;93831.97;;;8.24;67.34
61128;BME280;47013;42.664;23.242;2023-03-21T04:53:26;93837.00;;;8.26;66.94
61128;BME280;47013;42.664;23.242;2023-03-21T04:55:51;93839.31;;;8.35;66.78
61128;BME280;47013;42.664;23.242;2023-03-21T04:58:16;93835.03;;;8.41;66.30
61128;BME280;47013;42.664;23.242;2023-03-21T05:00:44;93835.00;;;8.44;66.16
61128;BME280;47013;42.664;23.242;2023-03-21T05:03:10;93827.25;;;8.50;66.16
61128;BME280;47013;42.664;23.242;2023-03-21T05:05:40;93834.53;;;8.56;66.03
61128;BME280;47013;42.664;23.242;2023-03-21T05:08:05;93835.28;;;8.64;65.81
61128;BME280;47013;42.664;23.242;2023-03-21T05:10:31;93842.16;;;8.72;65.53
61128;BME280;47013;42.664;23.242;2023-03-21T05:12:57;93843.75;;;8.73;66.13
61128;BME280;47013;42.664;23.242;2023-03-21T05:15:22;93845.66;;;8.73;66.72
61128;BME280;47013;42.664;23.242;2023-03-21T05:17:48;93841.41;;;8.75;66.24
61128;BME280;47013;42.664;23.242;2023-03-21T05:20:14;93844.84;;;8.79;66.04
61128;BME280;47013;42.664;23.242;2023-03-21T05:22:41;93840.94;;;8.84;66.27
61128;BME280;47013;42.664;23.242;2023-03-21T05:25:07;93848.66;;;8.89;65.82
61128;BME280;47013;42.664;23.242;2023-03-21T05:27:34;93849.75;;;8.95;66.24
61128;BME280;47013;42.664;23.242;2023-03-21T05:30:11;93839.31;;;9.01;65.77
61128;BME280;47013;42.664;23.242;2023-03-21T05:32:37;93843.09;;;9.10;65.51
61128;BME280;47013;42.664;23.242;2023-03-21T05:35:03;93848.81;;;9.20;65.35
61128;BME280;47013;42.664;23.242;2023-03-21T05:37:29;93849.16;;;9.29;65.18
61128;BME280;47013;42.664;23.242;2023-03-21T05:39:55;93851.78;;;9.36;65.46
61128;BME280;47013;42.664;23.242;2023-03-21T05:42:20;93850.59;;;9.37;65.94
61128;BME280;47013;42.664;23.242;2023-03-21T05:44:46;93848.97;;;9.46;65.81
61128;BME280;47013;42.664;23.242;2023-03-21T05:47:13;93845.06;;;9.55;65.05
61128;BME280;47013;42.664;23.242;2023-03-21T05:49:39;93840.72;;;9.61;65.50
61128;BME280;47013;42.664;23.242;2023-03-21T05:52:05;93832.19;;;9.66;65.03
61128;BME280;47013;42.664;23.242;2023-03-21T05:54:30;93829.00;;;9.74;65.00
61128;BME280;47013;42.664;23.242;2023-03-21T05:56:55;93823.47;;;9.85;64.41
61128;BME280;47013;42.664;23.242;2023-03-21T05:59:21;93830.31;;;9.97;63.80
61128;BME280;47013;42.664;23.242;2023-03-21T06:01:46;93822.09;;;10.08;63.52
61128;BME280;47013;42.664;23.242;2023-03-21T06:04:12;93816.97;;;10.17;62.34
61128;BME280;47013;42.664;23.242;2023-03-21T06:06:37;93816.88;;;10.24;62.43
61128;BME280;47013;42.664;23.242;2023-03-21T06:09:03;93822.53;;;10.37;63.42
61128;BME280;47013;42.664;23.242;2023-03-21T06:11:31;93827.47;;;10.45;62.25
61128;BME280;47013;42.664;23.242;2023-03-21T06:13:57;93818.81;;;10.54;61.45
61128;BME280;47013;42.664;23.242;2023-03-21T06:16:22;93821.41;;;10.64;61.15
61128;BME280;47013;42.664;23.242;2023-03-21T06:18:48;93820.91;;;10.73;60.25
61128;BME280;47013;42.664;23.242;2023-03-21T06:21:13;93812.97;;;10.86;59.88
61128;BME280;47013;42.664;23.242;2023-03-21T06:23:39;93806.22;;;10.98;59.48
61128;BME280;47013;42.664;23.242;2023-03-21T06:26:04;93802.59;;;11.08;61.19
61128;BME280;47013;42.664;23.242;2023-03-21T06:28:30;93799.03;;;11.11;63.12
61128;BME280;47013;42.664;23.242;2023-03-21T06:30:56;93794.94;;;10.99;62.04
61128;BME280;47013;42.664;23.242;2023-03-21T06:33:21;93799.75;;;10.88;62.20
61128;BME280;47013;42.664;23.242;2023-03-21T06:35:54;93804.50;;;10.80;62.42
61128;BME280;47013;42.664;23.242;2023-03-21T06:38:20;93805.94;;;10.88;61.38
61128;BME280;47013;42.664;23.242;2023-03-21T06:40:46;93809.22;;;11.03;63.38
61128;BME280;47013;42.664;23.242;2023-03-21T06:43:13;93809.75;;;11.18;60.60
61128;BME280;47013;42.664;23.242;2023-03-21T06:45:38;93818.16;;;11.27;60.79
61128;BME280;47013;42.664;23.242;2023-03-21T06:48:04;93813.00;;;11.33;60.62
61128;BME280;47013;42.664;23.242;2023-03-21T06:50:29;93812.44;;;11.21;60.51
61128;BME280;47013;42.664;23.242;2023-03-21T06:52:58;93820.69;;;11.38;59.72
61128;BME280;47013;42.664;23.242;2023-03-21T06:55:24;93828.53;;;11.56;59.85
61128;BME280;47013;42.664;23.242;2023-03-21T06:57:55;93824.34;;;11.74;59.39
61128;BME280;47013;42.664;23.242;2023-03-21T07:00:22;93818.28;;;11.90;58.87
61128;BME280;47013;42.664;23.242;2023-03-21T07:02:48;93823.63;;;11.94;58.15
61128;BME280;47013;42.664;23.242;2023-03-21T07:05:15;93824.63;;;12.03;58.23
61128;BME280;47013;42.664;23.242;2023-03-21T07:07:40;93831.81;;;12.14;56.90
61128;BME280;47013;42.664;23.242;2023-03-21T07:10:08;93829.25;;;12.26;55.31
61128;BME280;47013;42.664;23.242;2023-03-21T07:12:34;93821.56;;;12.41;54.57
61128;BME280;47013;42.664;23.242;2023-03-21T07:15:04;93827.56;;;12.52;54.26
61128;BME280;47013;42.664;23.242;2023-03-21T07:17:34;93831.22;;;12.62;52.42
61128;BME280;47013;42.664;23.242;2023-03-21T07:19:59;93834.56;;;12.69;51.71
61128;BME280;47013;42.664;23.242;2023-03-21T07:22:25;93832.81;;;12.79;50.66
61128;BME280;47013;42.664;23.242;2023-03-21T07:24:50;93825.25;;;12.87;51.18
61128;BME280;47013;42.664;23.242;2023-03-21T07:27:17;93820.16;;;12.89;51.16
61128;BME280;47013;42.664;23.242;2023-03-21T07:29:42;93831.22;;;12.98;50.29
61128;BME280;47013;42.664;23.242;2023-03-21T07:32:09;93829.13;;;13.06;49.85
61128;BME280;47013;42.664;23.242;2023-03-21T07:34:35;93828.25;;;12.92;49.57
61128;BME280;47013;42.664;23.242;2023-03-21T07:37:01;93827.28;;;12.47;50.38
61128;BME280;47013;42.664;23.242;2023-03-21T07:39:26;93839.63;;;12.51;50.29
61128;BME280;47013;42.664;23.242;2023-03-21T07:41:52;93836.81;;;12.55;50.61
61128;BME280;47013;42.664;23.242;2023-03-21T07:44:22;93829.13;;;12.69;65.65
61128;BME280;47013;42.664;23.242;2023-03-21T07:46:48;93831.31;;;13.31;62.12
61128;BME280;47013;42.664;23.242;2023-03-21T07:49:16;93837.50;;;13.47;50.23
61128;BME280;47013;42.664;23.242;2023-03-21T07:51:42;93836.31;;;13.48;49.97
61128;BME280;47013;42.664;23.242;2023-03-21T07:54:07;93840.41;;;13.56;49.29
61128;BME280;47013;42.664;23.242;2023-03-21T07:56:33;93836.06;;;13.59;49.19
61128;BME280;47013;42.664;23.242;2023-03-21T07:58:58;93840.06;;;13.38;49.82
61128;BME280;47013;42.664;23.242;2023-03-21T08:01:24;93841.88;;;13.28;49.21
61128;BME280;47013;42.664;23.242;2023-03-21T08:03:50;93845.72;;;13.11;49.21
61128;BME280;47013;42.664;23.242;2023-03-21T08:06:18;93833.34;;;13.26;49.67
61128;BME280;47013;42.664;23.242;2023-03-21T08:08:44;93832.91;;;13.28;50.08
61128;BME280;47013;42.664;23.242;2023-03-21T08:11:10;93837.53;;;13.11;49.25
61128;BME280;47013;42.664;23.242;2023-03-21T08:13:36;93834.47;;;13.09;51.29
61128;BME280;47013;42.664;23.242;2023-03-21T08:16:02;93835.22;;;12.93;49.48
61128;BME280;47013;42.664;23.242;2023-03-21T08:18:27;93832.81;;;12.79;49.56
61128;BME280;47013;42.664;23.242;2023-03-21T08:20:54;93833.41;;;12.87;49.92
61128;BME280;47013;42.664;23.242;2023-03-21T08:23:20;93829.22;;;13.02;50.57
61128;BME280;47013;42.664;23.242;2023-03-21T08:25:50;93821.72;;;13.06;50.25
61128;BME280;47013;42.664;23.242;2023-03-21T08:28:17;93831.41;;;13.07;49.46
61128;BME280;47013;42.664;23.242;2023-03-21T08:30:42;93820.72;;;13.16;48.78
61128;BME280;47013;42.664;23.242;2023-03-21T08:33:08;93826.44;;;13.22;48.79
61128;BME280;47013;42.664;23.242;2023-03-21T08:35:33;93816.06;;;13.33;48.73
61128;BME280;47013;42.664;23.242;2023-03-21T08:38:02;93821.50;;;13.49;48.84
61128;BME280;47013;42.664;23.242;2023-03-21T08:40:27;93824.06;;;13.56;48.17
61128;BME280;47013;42.664;23.242;2023-03-21T08:42:53;93823.38;;;13.52;46.88
61128;BME280;47013;42.664;23.242;2023-03-21T08:45:19;93821.25;;;13.27;47.05
61128;BME280;47013;42.664;23.242;2023-03-21T08:47:45;93827.13;;;13.26;47.50
61128;BME280;47013;42.664;23.242;2023-03-21T08:50:14;93825.44;;;13.48;47.25
61128;BME280;47013;42.664;23.242;2023-03-21T08:52:40;93819.53;;;13.66;46.84
61128;BME280;47013;42.664;23.242;2023-03-21T08:55:05;93814.72;;;13.57;46.70
61128;BME280;47013;42.664;23.242;2023-03-21T08:57:31;93827.53;;;13.41;47.10
61128;BME280;47013;42.664;23.242;2023-03-21T08:59:57;93821.84;;;13.51;47.47
61128;BME280;47013;42.664;23.242;2023-03-21T09:02:22;93813.78;;;13.32;47.58
61128;BME280;47013;42.664;23.242;2023-03-21T09:04:47;93816.56;;;13.28;47.78
61128;BME280;47013;42.664;23.242;2023-03-21T09:07:13;93806.88;;;13.43;48.03
61128;BME280;47013;42.664;23.242;2023-03-21T09:09:41;93807.03;;;13.36;47.41
61128;BME280;47013;42.664;23.242;2023-03-21T09:12:06;93811.81;;;13.32;47.50
61128;BME280;47013;42.664;23.242;2023-03-21T09:14:32;93810.38;;;13.44;47.32
61128;BME280;47013;42.664;23.242;2023-03-21T09:16:59;93803.75;;;13.28;47.88
61128;BME280;47013;42.664;23.242;2023-03-21T09:19:24;93806.56;;;13.41;48.44
61128;BME280;47013;42.664;23.242;2023-03-21T09:21:50;93796.84;;;13.56;48.56
61128;BME280;47013;42.664;23.242;2023-03-21T09:24:18;93790.75;;;13.65;48.54
61128;BME280;47013;42.664;23.242;2023-03-21T09:26:45;93784.28;;;13.75;49.00
61128;BME280;47013;42.664;23.242;2023-03-21T09:29:10;93774.13;;;13.76;47.91
61128;BME280;47013;42.664;23.242;2023-03-21T09:31:36;93786.16;;;13.62;47.07
61128;BME280;47013;42.664;23.242;2023-03-21T09:34:03;93787.91;;;13.56;47.87
61128;BME280;47013;42.664;23.242;2023-03-21T09:36:29;93784.28;;;13.75;47.96
61128;BME280;47013;42.664;23.242;2023-03-21T09:38:59;93770.72;;;13.88;47.71
61128;BME280;47013;42.664;23.242;2023-03-21T09:41:59;93772.28;;;14.02;47.50
61128;BME280;47013;42.664;23.242;2023-03-21T09:49:45;93764.19;;;14.27;47.16
61128;BME280;47013;42.664;23.242;2023-03-21T09:52:41;93767.81;;;14.37;47.66
61128;BME280;47013;42.664;23.242;2023-03-21T09:55:19;93757.88;;;14.43;46.64
61128;BME280;47013;42.664;23.242;2023-03-21T09:57:48;93758.03;;;14.52;46.62
61128;BME280;47013;42.664;23.242;2023-03-21T10:00:20;93759.88;;;14.55;47.13
61128;BME280;47013;42.664;23.242;2023-03-21T10:02:51;93753.47;;;14.62;46.62
61128;BME280;47013;42.664;23.242;2023-03-21T10:05:23;93755.00;;;14.75;45.98
61128;BME280;47013;42.664;23.242;2023-03-21T10:10:34;93741.34;;;15.01;45.50
61128;BME280;47013;42.664;23.242;2023-03-21T10:13:01;93743.84;;;15.08;44.57
61128;BME280;47013;42.664;23.242;2023-03-21T10:15:27;93728.94;;;15.34;44.61
61128;BME280;47013;42.664;23.242;2023-03-21T10:20:24;93739.03;;;15.72;43.38
61128;BME280;47013;42.664;23.242;2023-03-21T10:22:53;93740.72;;;16.13;44.15
61128;BME280;47013;42.664;23.242;2023-03-21T10:25:23;93738.81;;;16.45;41.77
61128;BME280;47013;42.664;23.242;2023-03-21T10:27:51;93737.06;;;16.60;41.44
61128;BME280;47013;42.664;23.242;2023-03-21T10:32:56;93736.13;;;16.85;40.25
61128;BME280;47013;42.664;23.242;2023-03-21T10:35:23;93739.59;;;17.07;39.06
61128;BME280;47013;42.664;23.242;2023-03-21T10:37:49;93741.72;;;17.13;38.84
61128;BME280;47013;42.664;23.242;2023-03-21T10:40:16;93751.38;;;17.35;39.03
61128;BME280;47013;42.664;23.242;2023-03-21T10:42:42;93741.31;;;17.42;37.08
61128;BME280;47013;42.664;23.242;2023-03-21T10:45:18;93737.03;;;17.31;36.72
61128;BME280;47013;42.664;23.242;2023-03-21T10:47:47;93740.06;;;17.24;35.68
61128;BME280;47013;42.664;23.242;2023-03-21T10:50:15;93731.03;;;17.05;36.39
61128;BME280;47013;42.664;23.242;2023-03-21T10:52:49;93735.22;;;17.19;37.60
61128;BME280;47013;42.664;23.242;2023-03-21T10:55:24;93738.06;;;17.06;36.61
61128;BME280;47013;42.664;23.242;2023-03-21T10:57:59;93727.28;;;17.21;36.49
61128;BME280;47013;42.664;23.242;2023-03-21T11:00:29;93722.28;;;17.29;35.94
61128;BME280;47013;42.664;23.242;2023-03-21T11:02:58;93718.66;;;17.41;36.30
61128;BME280;47013;42.664;23.242;2023-03-21T11:08:05;93715.75;;;17.35;35.49
61128;BME280;47013;42.664;23.242;2023-03-21T11:10:35;93715.75;;;17.35;35.71
61128;BME280;47013;42.664;23.242;2023-03-21T11:13:07;93716.06;;;17.47;35.91
61128;BME280;47013;42.664;23.242;2023-03-21T11:15:51;93719.56;;;17.38;35.50
61128;BME280;47013;42.664;23.242;2023-03-21T11:21:01;93704.53;;;17.02;36.31
61128;BME280;47013;42.664;23.242;2023-03-21T11:23:29;93700.78;;;17.09;36.09
61128;BME280;47013;42.664;23.242;2023-03-21T11:25:56;93697.91;;;17.22;36.67
61128;BME280;47013;42.664;23.242;2023-03-21T11:28:24;93686.31;;;17.18;36.30
61128;BME280;47013;42.664;23.242;2023-03-21T11:30:55;93681.72;;;17.05;35.73
61128;BME280;47013;42.664;23.242;2023-03-21T11:33:27;93674.25;;;16.97;36.00
61128;BME280;47013;42.664;23.242;2023-03-21T11:38:41;93680.53;;;17.16;35.33
61128;BME280;47013;42.664;23.242;2023-03-21T11:41:06;93674.13;;;17.19;35.66
61128;BME280;47013;42.664;23.242;2023-03-21T11:43:37;93674.13;;;17.00;36.17
61128;BME280;47013;42.664;23.242;2023-03-21T11:46:12;93679.47;;;17.13;35.97
61128;BME280;47013;42.664;23.242;2023-03-21T11:48:48;93674.28;;;17.06;36.08
61128;BME280;47013;42.664;23.242;2023-03-21T11:57:23;93655.94;;;16.75;36.49
61128;BME280;47013;42.664;23.242;2023-03-21T12:00:06;93666.19;;;16.62;36.40
61128;BME280;47013;42.664;23.242;2023-03-21T12:02:46;93656.31;;;16.56;36.10
61128;BME280;47013;42.664;23.242;2023-03-21T12:11:00;93652.59;;;16.71;36.58
61128;BME280;47013;42.664;23.242;2023-03-21T12:13:42;93643.69;;;16.27;36.41
61128;BME280;47013;42.664;23.242;2023-03-21T12:16:26;93640.44;;;16.41;36.49
61128;BME280;47013;42.664;23.242;2023-03-21T12:38:07;93618.34;;;16.36;34.66
61128;BME280;47013;42.664;23.242;2023-03-21T12:40:16;93619.63;;;16.53;34.91
61128;BME280;47013;42.664;23.242;2023-03-21T12:45:30;93618.44;;;16.63;36.07
61128;BME280;47013;42.664;23.242;2023-03-21T12:50:54;93615.16;;;16.37;35.51
61128;BME280;47013;42.664;23.242;2023-03-21T12:53:43;93607.16;;;16.43;35.25
61128;BME280;47013;42.664;23.242;2023-03-21T12:56:16;93612.31;;;16.10;35.20
61128;BME280;47013;42.664;23.242;2023-03-21T12:59:05;93603.72;;;16.20;35.71
61128;BME280;47013;42.664;23.242;2023-03-21T13:01:34;93598.91;;;16.03;36.05
61128;BME280;47013;42.664;23.242;2023-03-21T13:06:45;93586.97;;;16.18;34.92
61128;BME280;47013;42.664;23.242;2023-03-21T13:09:16;93585.91;;;16.16;36.20
61128;BME280;47013;42.664;23.242;2023-03-21T13:11:45;93586.22;;;16.18;36.00
61128;BME280;47013;42.664;23.242;2023-03-21T13:14:16;93587.16;;;16.24;36.43
61128;BME280;47013;42.664;23.242;2023-03-21T13:22:13;93581.56;;;16.28;35.95
61128;BME280;47013;42.664;23.242;2023-03-21T13:24:49;93585.00;;;16.19;35.79
61128;BME280;47013;42.664;23.242;2023-03-21T13:29:57;93577.41;;;16.23;35.52
61128;BME280;47013;42.664;23.242;2023-03-21T13:34:54;93574.22;;;16.15;35.28
61128;BME280;47013;42.664;23.242;2023-03-21T13:37:21;93571.13;;;16.13;36.16
61128;BME280;47013;42.664;23.242;2023-03-21T13:39:48;93564.59;;;16.11;36.04
61128;BME280;47013;42.664;23.242;2023-03-21T13:42:23;93568.91;;;16.21;35.91
61128;BME280;47013;42.664;23.242;2023-03-21T13:44:59;93567.03;;;16.09;36.01
61128;BME280;47013;42.664;23.242;2023-03-21T13:47:28;93569.81;;;16.18;36.66
61128;BME280;47013;42.664;23.242;2023-03-21T13:52:38;93565.06;;;16.09;36.46
61128;BME280;47013;42.664;23.242;2023-03-21T13:55:14;93560.94;;;16.05;36.23
61128;BME280;47013;42.664;23.242;2023-03-21T13:57:45;93564.25;;;16.00;36.29
61128;BME280;47013;42.664;23.242;2023-03-21T14:05:28;93558.59;;;15.94;37.52
61128;BME280;47013;42.664;23.242;2023-03-21T14:07:57;93555.56;;;15.92;37.27
61128;BME280;47013;42.664;23.242;2023-03-21T14:10:27;93558.59;;;15.94;37.40
61128;BME280;47013;42.664;23.242;2023-03-21T14:12:54;93560.97;;;15.83;37.40
61128;BME280;47013;42.664;23.242;2023-03-21T14:15:48;93553.59;;;15.92;37.29
61128;BME280;47013;42.664;23.242;2023-03-21T14:18:19;93558.25;;;15.83;37.60
61128;BME280;47013;42.664;23.242;2023-03-21T14:20:44;93546.50;;;15.73;37.76
61128;BME280;47013;42.664;23.242;2023-03-21T14:23:14;93550.72;;;15.65;37.87
61128;BME280;47013;42.664;23.242;2023-03-21T14:25:41;93549.50;;;15.66;38.10
61128;BME280;47013;42.664;23.242;2023-03-21T14:28:17;93540.84;;;15.46;38.57
61128;BME280;47013;42.664;23.242;2023-03-21T14:30:44;93547.38;;;15.48;38.85
61128;BME280;47013;42.664;23.242;2023-03-21T14:33:26;93542.69;;;15.49;39.02
61128;BME280;47013;42.664;23.242;2023-03-21T14:35:56;93546.75;;;15.44;39.12
61128;BME280;47013;42.664;23.242;2023-03-21T14:38:24;93545.81;;;15.38;39.29
61128;BME280;47013;42.664;23.242;2023-03-21T14:40:53;93547.06;;;15.46;39.53
61128;BME280;47013;42.664;23.242;2023-03-21T14:43:21;93539.69;;;15.56;40.10
61128;BME280;47013;42.664;23.242;2023-03-21T14:45:51;93549.19;;;15.64;41.24
61128;BME280;47013;42.664;23.242;2023-03-21T14:48:20;93543.44;;;15.71;41.68